createdAt,value
2018-06-09T00:00:15.823Z,13.00
2018-06-09T00:02:43.219Z,12.63
2018-06-09T00:05:10.838Z,13.50
2018-06-09T00:07:38.208Z,13.57
2018-06-09T00:10:05.707Z,12.47
2018-06-09T00:12:33.084Z,13.53
2018-06-09T00:15:00.397Z,13.33
2018-06-09T00:17:27.720Z,13.77
2018-06-09T00:19:55.061Z,13.70
2018-06-09T00:22:22.221Z,13.17
2018-06-09T00:24:49.563Z,12.73
2018-06-09T00:27:16.883Z,12.17
2018-06-09T00:29:44.238Z,14.53
2018-06-09T00:32:11.548Z,12.93
2018-06-09T00:34:38.873Z,13.83
2018-06-09T00:37:06.182Z,13.90
2018-06-09T00:39:33.492Z,14.80
2018-06-09T00:42:00.835Z,13.40
2018-06-09T00:44:28.147Z,14.47
2018-06-09T00:46:55.463Z,14.00
2018-06-09T00:49:22.792Z,15.40
2018-06-09T00:51:50.135Z,16.90
2018-06-09T00:54:17.493Z,17.53
2018-06-09T00:56:45.421Z,17.30
2018-06-09T00:59:12.726Z,16.07
2018-06-09T01:01:40.094Z,17.67
2018-06-09T01:04:07.422Z,18.63
2018-06-09T01:06:34.808Z,18.30
2018-06-09T01:09:02.140Z,18.27
2018-06-09T01:11:29.448Z,17.57
2018-06-09T01:13:56.777Z,18.37
2018-06-09T01:16:24.097Z,18.20
2018-06-09T01:18:51.427Z,17.57
2018-06-09T01:21:18.778Z,17.50
2018-06-09T01:23:46.081Z,17.90
2018-06-09T01:26:13.411Z,17.63
2018-06-09T01:28:40.761Z,18.77
2018-06-09T01:31:08.085Z,19.67
2018-06-09T01:33:35.459Z,20.83
2018-06-09T01:36:02.766Z,22.83
2018-06-09T01:38:29.992Z,23.60
2018-06-09T01:40:57.326Z,25.43
2018-06-09T01:43:24.632Z,24.93
2018-06-09T01:45:51.966Z,24.70
2018-06-09T01:48:19.296Z,23.70
2018-06-09T01:50:46.616Z,21.83
2018-06-09T01:53:13.962Z,22.70
2018-06-09T01:55:41.286Z,20.80
2018-06-09T01:58:08.623Z,22.40
2018-06-09T02:00:35.973Z,22.27
2018-06-09T02:03:03.298Z,22.03
2018-06-09T02:05:30.635Z,20.90
2018-06-09T02:07:57.931Z,19.77
2018-06-09T02:10:25.271Z,21.13
2018-06-09T02:12:52.575Z,27.57
2018-06-09T02:15:20.157Z,25.80
2018-06-09T02:17:47.334Z,26.40
2018-06-09T02:20:14.672Z,29.13
2018-06-09T02:22:41.964Z,26.53
2018-06-09T02:25:09.302Z,28.43
2018-06-09T02:27:36.608Z,27.20
2018-06-09T02:30:03.937Z,28.67
2018-06-09T02:32:31.236Z,28.70
2018-06-09T02:34:58.606Z,29.00
2018-06-09T02:37:25.936Z,30.17
2018-06-09T02:39:53.252Z,31.57
2018-06-09T02:42:20.583Z,33.47
2018-06-09T02:44:47.903Z,31.40
2018-06-09T02:47:15.228Z,32.80
2018-06-09T02:49:42.618Z,33.07
2018-06-09T02:52:09.925Z,30.50
2018-06-09T02:54:37.281Z,32.87
2018-06-09T02:57:04.631Z,32.50
2018-06-09T02:59:31.982Z,32.30
2018-06-09T03:01:59.322Z,29.87
2018-06-09T03:04:26.680Z,32.83
2018-06-09T03:06:54.030Z,32.47
2018-06-09T03:09:21.435Z,32.47
2018-06-09T03:11:48.758Z,32.47
2018-06-09T03:14:16.082Z,32.83
2018-06-09T03:16:43.543Z,32.33
2018-06-09T03:19:10.901Z,27.07
2018-06-09T03:21:38.239Z,33.80
2018-06-09T03:24:05.560Z,31.50
2018-06-09T03:26:32.914Z,29.67
2018-06-09T03:29:00.230Z,27.80
2018-06-09T03:31:27.592Z,30.47
2018-06-09T03:33:54.953Z,31.60
2018-06-09T03:36:22.254Z,30.17
2018-06-09T03:38:49.635Z,26.50
2018-06-09T03:41:16.962Z,33.27
2018-06-09T03:43:44.347Z,28.67
2018-06-09T03:46:11.655Z,26.03
2018-06-09T03:48:38.989Z,24.07
2018-06-09T03:51:06.367Z,26.60
2018-06-09T03:53:33.803Z,27.53
2018-06-09T03:56:01.149Z,24.33
2018-06-09T03:58:28.483Z,28.73
2018-06-09T04:00:55.846Z,30.27
2018-06-09T04:03:23.192Z,35.00
2018-06-09T04:05:50.545Z,35.60
2018-06-09T04:08:17.859Z,38.37
2018-06-09T04:10:45.199Z,45.17
2018-06-09T04:13:12.509Z,42.63
2018-06-09T04:15:39.857Z,43.60
2018-06-09T04:18:07.187Z,44.80
2018-06-09T04:20:34.596Z,45.93
2018-06-09T04:23:01.890Z,44.30
2018-06-09T04:25:29.244Z,45.43
2018-06-09T04:27:56.600Z,41.17
2018-06-09T04:30:23.902Z,43.20
2018-06-09T04:32:51.240Z,43.37
2018-06-09T04:35:18.583Z,44.57
2018-06-09T04:37:45.911Z,44.60
2018-06-09T04:40:13.267Z,37.73
2018-06-09T04:42:40.595Z,38.70
2018-06-09T04:45:07.895Z,36.93
2018-06-09T04:47:35.207Z,36.33
2018-06-09T04:50:02.493Z,32.80
2018-06-09T04:52:29.837Z,36.83
2018-06-09T04:54:57.151Z,34.87
2018-06-09T04:57:24.507Z,33.83
2018-06-09T04:59:51.961Z,35.40
2018-06-09T05:02:19.577Z,37.47
2018-06-09T05:04:46.903Z,34.83
2018-06-09T05:07:14.236Z,35.97
2018-06-09T05:09:41.667Z,32.80
2018-06-09T05:12:09.027Z,36.67
2018-06-09T05:14:36.354Z,34.13
2018-06-09T05:17:03.722Z,38.27
2018-06-09T05:19:31.031Z,36.50
2018-06-09T05:21:58.340Z,35.13
2018-06-09T05:24:25.638Z,34.80
2018-06-09T05:26:52.937Z,33.57
2018-06-09T05:29:20.244Z,37.40
2018-06-09T05:31:47.573Z,35.13
2018-06-09T05:34:14.905Z,37.47
2018-06-09T05:36:42.248Z,33.33
2018-06-09T05:39:09.547Z,34.53
2018-06-09T05:41:36.882Z,33.13
2018-06-09T05:44:04.041Z,29.20
2018-06-09T05:46:31.373Z,33.63
2018-06-09T05:48:58.708Z,32.97
2018-06-09T05:51:26.017Z,30.57
2018-06-09T05:53:53.332Z,29.30
2018-06-09T05:56:20.667Z,31.40
2018-06-09T05:58:48.048Z,27.63
2018-06-09T06:01:15.375Z,29.60
2018-06-09T06:03:42.684Z,29.23
2018-06-09T06:06:09.960Z,32.83
2018-06-09T06:08:37.277Z,26.60
2018-06-09T06:11:04.574Z,25.53
2018-06-09T06:13:31.905Z,30.57
2018-06-09T06:15:59.426Z,30.03
2018-06-09T06:18:26.856Z,26.00
2018-06-09T06:20:54.149Z,24.50
2018-06-09T06:23:21.478Z,30.13
2018-06-09T06:25:48.866Z,27.67
2018-06-09T06:28:16.202Z,28.33
2018-06-09T06:30:43.666Z,30.77
2018-06-09T06:33:10.888Z,28.07
2018-06-09T06:35:38.229Z,26.97
2018-06-09T06:38:05.603Z,26.80
2018-06-09T06:40:32.940Z,26.20
2018-06-09T06:43:00.413Z,27.03
2018-06-09T06:45:27.706Z,26.73
2018-06-09T06:47:55.041Z,27.13
2018-06-09T06:50:22.330Z,24.27
2018-06-09T06:52:49.643Z,23.93
2018-06-09T06:55:16.989Z,22.73
2018-06-09T06:57:44.339Z,21.77
2018-06-09T07:00:11.741Z,24.30
2018-06-09T07:02:39.282Z,22.33
2018-06-09T07:05:06.651Z,22.10
2018-06-09T07:07:33.976Z,22.77
2018-06-09T07:10:01.327Z,20.20
2018-06-09T07:12:28.675Z,22.83
2018-06-09T07:14:56.038Z,23.40
2018-06-09T07:17:23.545Z,19.67
2018-06-09T07:19:50.717Z,19.30
2018-06-09T07:22:18.081Z,19.80
2018-06-09T07:24:45.399Z,19.23
2018-06-09T07:27:12.711Z,19.73
2018-06-09T07:29:40.017Z,21.13
2018-06-09T07:32:07.410Z,20.83
2018-06-09T07:34:34.822Z,17.10
2018-06-09T07:37:02.176Z,20.23
2018-06-09T07:39:29.523Z,21.57
2018-06-09T07:41:56.972Z,21.27
2018-06-09T07:44:24.313Z,23.00
2018-06-09T07:46:51.624Z,20.90
2018-06-09T07:49:18.944Z,24.07
2018-06-09T07:51:46.241Z,25.03
2018-06-09T07:54:13.643Z,22.70
2018-06-09T07:56:40.955Z,22.60
2018-06-09T07:59:08.339Z,21.60
2018-06-09T08:01:35.712Z,21.83
2018-06-09T08:04:03.095Z,21.40
2018-06-09T08:06:30.418Z,20.33
2018-06-09T08:08:57.768Z,21.03
2018-06-09T08:11:25.102Z,20.27
2018-06-09T08:13:52.803Z,21.30
2018-06-09T08:16:20.202Z,21.57
2018-06-09T08:18:47.542Z,18.43
2018-06-09T08:21:14.864Z,19.43
2018-06-09T08:23:42.457Z,17.23
2018-06-09T08:26:09.766Z,18.77
2018-06-09T08:28:37.093Z,19.70
2018-06-09T08:31:04.390Z,20.93
2018-06-09T08:33:31.727Z,20.77
2018-06-09T08:35:59.219Z,20.07
2018-06-09T08:38:26.527Z,20.47
2018-06-09T08:40:53.892Z,20.90
2018-06-09T08:43:21.193Z,20.40
2018-06-09T08:45:48.556Z,19.10
2018-06-09T08:48:15.853Z,19.97
2018-06-09T08:50:43.257Z,21.23
2018-06-09T08:53:10.661Z,18.30
2018-06-09T08:55:37.822Z,20.07
2018-06-09T08:58:05.155Z,18.67
2018-06-09T09:00:32.466Z,18.90
2018-06-09T09:02:59.889Z,19.60
2018-06-09T09:05:27.226Z,18.00
2018-06-09T09:07:54.672Z,17.50
2018-06-09T09:10:21.999Z,16.20
2018-06-09T09:12:49.528Z,18.23
2018-06-09T09:15:16.841Z,17.90
2018-06-09T09:17:44.138Z,17.93
2018-06-09T09:20:11.525Z,19.10
2018-06-09T09:22:38.810Z,20.90
2018-06-09T09:25:06.263Z,18.60
2018-06-09T09:27:33.579Z,16.90
2018-06-09T09:30:00.918Z,19.20
2018-06-09T09:32:28.221Z,19.33
2018-06-09T09:34:55.577Z,18.60
2018-06-09T09:37:22.919Z,18.47
2018-06-09T09:39:50.209Z,18.10
2018-06-09T09:42:17.529Z,18.87
2018-06-09T09:44:44.851Z,20.10
2018-06-09T09:47:12.149Z,18.20
2018-06-09T09:49:39.491Z,16.83
2018-06-09T09:52:06.791Z,18.70
2018-06-09T09:54:33.966Z,17.30
2018-06-09T09:57:01.316Z,16.97
2018-06-09T09:59:28.618Z,17.80
2018-06-09T10:01:55.930Z,20.40
2018-06-09T10:04:23.314Z,20.50
2018-06-09T10:06:50.646Z,19.33
2018-06-09T10:09:18.006Z,18.87
2018-06-09T10:11:45.344Z,20.37
2018-06-09T10:14:12.649Z,17.93
2018-06-09T10:16:39.983Z,19.27
2018-06-09T10:19:07.288Z,18.27
2018-06-09T10:21:34.621Z,17.17
2018-06-09T10:24:01.950Z,19.40
2018-06-09T10:26:29.343Z,17.97
2018-06-09T10:28:56.693Z,18.93
2018-06-09T10:31:24.018Z,17.30
2018-06-09T10:33:51.374Z,18.07
2018-06-09T10:36:18.718Z,17.10
2018-06-09T10:38:46.100Z,17.50
2018-06-09T10:41:13.331Z,18.53
2018-06-09T10:43:41.191Z,15.77
2018-06-09T10:46:08.487Z,17.50
2018-06-09T10:48:35.862Z,17.97
2018-06-09T10:51:03.159Z,17.43
2018-06-09T10:53:30.478Z,18.57
2018-06-09T10:55:57.685Z,16.40
2018-06-09T10:58:25.006Z,18.77
2018-06-09T11:00:52.351Z,17.50
2018-06-09T11:03:19.666Z,17.00
2018-06-09T11:05:47.071Z,16.37
2018-06-09T11:08:14.442Z,16.03
2018-06-09T11:10:41.797Z,17.27
2018-06-09T11:13:09.370Z,18.37
2018-06-09T11:15:36.851Z,16.70
2018-06-09T11:18:04.429Z,18.60
2018-06-09T11:20:31.753Z,18.30
2018-06-09T11:22:59.112Z,16.57
2018-06-09T11:25:26.281Z,16.37
2018-06-09T11:27:53.626Z,16.37
2018-06-09T11:30:21.031Z,15.90
2018-06-09T11:32:48.228Z,16.63
2018-06-09T11:35:15.611Z,16.30
2018-06-09T11:37:42.898Z,15.03
2018-06-09T11:40:10.219Z,15.47
2018-06-09T11:42:37.497Z,14.23
2018-06-09T11:45:05.113Z,14.90
2018-06-09T11:47:32.435Z,16.20
2018-06-09T11:49:59.757Z,15.50
2018-06-09T11:52:27.074Z,16.47
2018-06-09T11:54:54.374Z,14.60
2018-06-09T11:57:21.774Z,16.43
2018-06-09T11:59:49.066Z,15.40
2018-06-09T12:02:16.486Z,14.77
2018-06-09T12:04:43.809Z,14.03
2018-06-09T12:07:11.142Z,15.60
2018-06-09T12:09:38.473Z,15.90
2018-06-09T12:12:05.813Z,14.70
2018-06-09T12:14:33.308Z,16.33
2018-06-09T12:17:00.795Z,16.00
2018-06-09T12:19:28.187Z,15.77
2018-06-09T12:21:55.520Z,15.43
2018-06-09T12:24:22.837Z,15.43
2018-06-09T12:26:50.932Z,15.57
2018-06-09T12:29:18.341Z,14.77
2018-06-09T12:31:45.678Z,15.13
2018-06-09T12:34:13.019Z,15.90
2018-06-09T12:36:40.359Z,14.10
2018-06-09T12:39:07.755Z,14.23
2018-06-09T12:41:35.201Z,13.97
2018-06-09T12:44:02.598Z,13.37
2018-06-09T12:46:29.808Z,13.53
2018-06-09T12:48:57.198Z,13.90
2018-06-09T12:51:24.673Z,13.87
2018-06-09T12:53:51.979Z,14.80
2018-06-09T12:56:19.382Z,13.17
2018-06-09T12:58:46.721Z,14.10
2018-06-09T13:01:14.119Z,13.07
2018-06-09T13:03:41.626Z,14.23
2018-06-09T13:06:09.005Z,14.50
2018-06-09T13:08:36.358Z,12.80
2018-06-09T13:11:03.699Z,12.83
2018-06-09T13:13:31.041Z,12.00
2018-06-09T13:15:58.358Z,13.00
2018-06-09T13:18:25.681Z,11.70
2018-06-09T13:20:53.066Z,12.77
2018-06-09T13:23:20.389Z,13.13
2018-06-09T13:25:47.739Z,12.87
2018-06-09T13:28:15.131Z,13.13
2018-06-09T13:30:42.489Z,14.50
2018-06-09T13:33:09.818Z,14.67
2018-06-09T13:35:37.121Z,13.83
2018-06-09T13:38:04.490Z,14.30
2018-06-09T13:40:31.822Z,15.37
2018-06-09T13:42:59.174Z,15.73
2018-06-09T13:45:26.564Z,13.27
2018-06-09T13:47:53.965Z,15.00
2018-06-09T13:50:21.258Z,13.10
2018-06-09T13:52:48.607Z,11.90
2018-06-09T13:55:15.954Z,12.43
2018-06-09T13:57:43.249Z,12.40
2018-06-09T14:00:10.584Z,12.13
2018-06-09T14:02:37.917Z,13.50
2018-06-09T14:05:05.222Z,13.00
2018-06-09T14:07:32.584Z,12.60
2018-06-09T14:10:00.046Z,12.57
2018-06-09T14:12:27.351Z,12.60
2018-06-09T14:14:54.691Z,13.40
2018-06-09T14:17:22.037Z,12.67
2018-06-09T14:19:49.334Z,12.97
2018-06-09T14:22:16.659Z,11.80
2018-06-09T14:24:43.982Z,13.87
2018-06-09T14:27:11.303Z,12.30
2018-06-09T14:29:38.659Z,13.13
2018-06-09T14:32:06.003Z,11.97
2018-06-09T14:34:33.408Z,12.30
2018-06-09T14:37:00.713Z,11.10
2018-06-09T14:39:28.013Z,13.10
2018-06-09T14:41:55.477Z,11.93
2018-06-09T14:44:22.911Z,15.00
2018-06-09T14:46:50.223Z,13.30
2018-06-09T14:49:17.582Z,14.70
2018-06-09T14:51:44.919Z,14.90
2018-06-09T14:54:12.247Z,15.30
2018-06-09T14:56:39.554Z,14.97
2018-06-09T14:59:06.864Z,16.20
2018-06-09T15:01:34.175Z,15.67
2018-06-09T15:04:01.487Z,15.90
2018-06-09T15:06:28.844Z,19.90
2018-06-09T15:08:56.180Z,21.30
2018-06-09T15:11:23.480Z,21.67
2018-06-09T15:13:50.805Z,27.03
2018-06-09T15:16:18.142Z,28.53
2018-06-09T15:18:45.491Z,30.20
2018-06-09T15:21:12.796Z,29.30
2018-06-09T15:23:39.981Z,29.40
2018-06-09T15:26:07.320Z,34.77
2018-06-09T15:28:34.624Z,34.77
2018-06-09T15:31:02.040Z,36.77
2018-06-09T15:33:29.342Z,34.80
2018-06-09T15:35:56.666Z,38.27
2018-06-09T15:38:23.985Z,34.30
2018-06-09T15:40:51.343Z,35.20
2018-06-09T15:43:18.513Z,37.07
2018-06-09T15:45:45.844Z,37.67
2018-06-09T15:48:13.048Z,38.60
2018-06-09T15:50:40.400Z,44.10
2018-06-09T15:53:07.699Z,45.33
2018-06-09T15:55:35.010Z,38.67
2018-06-09T15:58:02.390Z,25.40
2018-06-09T16:00:29.677Z,15.10
2018-06-09T16:02:57.027Z,13.13
2018-06-09T16:05:24.304Z,14.63
2018-06-09T16:07:51.629Z,12.83
2018-06-09T16:10:18.993Z,10.80
2018-06-09T16:12:46.344Z,10.63
2018-06-09T16:15:13.691Z,11.03
2018-06-09T16:17:41.273Z,11.53
2018-06-09T16:20:08.611Z,10.83
2018-06-09T16:22:35.902Z,10.37
2018-06-09T16:25:03.267Z,10.23
2018-06-09T16:27:30.583Z,11.17
2018-06-09T16:29:57.892Z,12.03
2018-06-09T16:32:25.240Z,10.57
2018-06-09T16:34:52.668Z,10.30
2018-06-09T16:37:20.038Z,19.17
2018-06-09T16:39:47.345Z,19.17
2018-06-09T16:42:14.653Z,22.07
2018-06-09T16:44:41.979Z,27.33
2018-06-09T16:47:09.301Z,28.37
2018-06-09T16:49:36.615Z,31.03
2018-06-09T16:52:03.942Z,33.57
2018-06-09T16:54:31.357Z,36.27
2018-06-09T16:56:58.716Z,35.37
2018-06-09T16:59:26.021Z,39.63
2018-06-09T17:01:53.337Z,39.70
2018-06-09T17:04:21.611Z,39.07
2018-06-09T17:06:49.002Z,37.03
2018-06-09T17:09:16.319Z,39.03
2018-06-09T17:11:43.605Z,38.83
2018-06-09T17:14:10.933Z,39.63
2018-06-09T17:16:38.282Z,38.40
2018-06-09T17:19:05.610Z,39.17
2018-06-09T17:21:32.925Z,38.70
2018-06-09T17:24:00.225Z,42.50
2018-06-09T17:26:27.575Z,41.27
2018-06-09T17:28:54.919Z,39.87
2018-06-09T17:31:22.366Z,40.23
2018-06-09T17:33:49.716Z,41.10
2018-06-09T17:36:17.077Z,38.10
2018-06-09T17:38:44.378Z,36.20
2018-06-09T17:41:11.743Z,38.37
2018-06-09T17:43:39.087Z,38.47
2018-06-09T17:46:06.394Z,38.03
2018-06-09T17:48:33.696Z,38.57
2018-06-09T17:51:01.002Z,37.30
2018-06-09T17:53:28.325Z,38.13
2018-06-09T17:55:55.611Z,40.97
2018-06-09T17:58:22.991Z,40.33
2018-06-09T18:00:50.314Z,38.47
2018-06-09T18:03:17.647Z,37.73
2018-06-09T18:05:44.947Z,38.13
2018-06-09T18:08:12.286Z,40.83
2018-06-09T18:10:39.588Z,38.10
2018-06-09T18:13:06.929Z,39.07
2018-06-09T18:15:34.270Z,38.60
2018-06-09T18:18:01.663Z,39.77
2018-06-09T18:20:28.986Z,37.07
2018-06-09T18:22:56.385Z,40.50
2018-06-09T18:25:23.642Z,41.37
2018-06-09T18:27:50.981Z,39.27
2018-06-09T18:30:18.294Z,39.93
2018-06-09T18:32:45.667Z,39.83
2018-06-09T18:35:12.990Z,40.43
2018-06-09T18:37:40.397Z,40.23
2018-06-09T18:40:07.755Z,40.47
2018-06-09T18:42:35.255Z,39.00
2018-06-09T18:45:02.643Z,39.30
2018-06-09T18:47:29.988Z,39.13
2018-06-09T18:49:57.418Z,40.97
2018-06-09T18:52:24.739Z,35.13
2018-06-09T18:54:52.072Z,39.17
2018-06-09T18:57:19.423Z,38.07
2018-06-09T18:59:46.763Z,34.03
2018-06-09T19:02:14.088Z,32.27
2018-06-09T19:04:41.502Z,31.53
2018-06-09T19:07:08.840Z,30.77
2018-06-09T19:09:36.237Z,31.30
2018-06-09T19:12:03.587Z,32.10
2018-06-09T19:14:30.955Z,29.77
2018-06-09T19:16:58.295Z,25.97
2018-06-09T19:19:25.701Z,23.77
2018-06-09T19:21:53.134Z,23.80
2018-06-09T19:24:20.427Z,16.87
2018-06-09T19:26:47.763Z,14.30
2018-06-09T19:29:15.141Z,12.40
2018-06-09T19:31:42.478Z,10.77
2018-06-09T19:34:09.933Z,11.23
2018-06-09T19:36:37.269Z,9.67
2018-06-09T19:39:06.707Z,10.23
2018-06-09T19:41:34.646Z,10.47
2018-06-09T19:44:01.977Z,9.60
2018-06-09T19:46:29.356Z,10.27
2018-06-09T19:48:56.787Z,10.23
2018-06-09T19:51:24.113Z,11.07
2018-06-09T19:53:51.431Z,11.17
2018-06-09T19:56:18.814Z,10.60
2018-06-09T19:58:46.137Z,11.20
2018-06-09T20:01:13.516Z,12.00
2018-06-09T20:03:40.881Z,10.93
2018-06-09T20:06:08.224Z,11.37
2018-06-09T20:08:35.563Z,11.80
2018-06-09T20:11:02.909Z,11.87
2018-06-09T20:13:30.373Z,11.67
2018-06-09T20:15:57.682Z,11.83
2018-06-09T20:18:25.046Z,10.53
2018-06-09T20:20:52.467Z,11.57
2018-06-09T20:23:19.942Z,11.30
2018-06-09T20:25:47.353Z,11.77
2018-06-09T20:28:14.779Z,11.20
2018-06-09T20:30:42.163Z,11.93
2018-06-09T20:33:09.500Z,11.43
2018-06-09T20:35:36.879Z,11.53
2018-06-09T20:38:04.279Z,11.60
2018-06-09T20:40:31.700Z,10.57
2018-06-09T20:42:59.082Z,11.73
2018-06-09T20:45:26.438Z,11.97
2018-06-09T20:47:53.791Z,12.50
2018-06-09T20:50:21.694Z,11.00
2018-06-09T20:52:49.047Z,12.00
2018-06-09T20:55:16.442Z,10.50
2018-06-09T20:57:43.830Z,11.60
2018-06-09T21:00:11.183Z,11.53
2018-06-09T21:02:38.539Z,11.87
2018-06-09T21:05:05.903Z,11.50
2018-06-09T21:07:33.227Z,12.00
2018-06-09T21:10:00.614Z,10.83
2018-06-09T21:12:27.988Z,10.60
2018-06-09T21:14:55.339Z,11.10
2018-06-09T21:17:22.567Z,11.60
2018-06-09T21:19:49.935Z,11.60
2018-06-09T21:22:17.276Z,11.07
2018-06-09T21:24:44.705Z,11.83
2018-06-09T21:27:12.041Z,13.37
2018-06-09T21:29:40.097Z,12.10
2018-06-09T21:32:07.708Z,11.70
2018-06-09T21:34:46.522Z,13.10
2018-06-09T21:37:13.854Z,12.00
2018-06-09T21:39:45.207Z,13.73
2018-06-09T21:42:12.558Z,14.83
2018-06-09T21:44:39.905Z,12.10
2018-06-09T21:47:07.238Z,12.97
2018-06-09T21:49:34.572Z,13.87
2018-06-09T21:52:01.983Z,13.00
2018-06-09T21:54:29.880Z,12.20
2018-06-09T21:56:57.205Z,12.73
2018-06-09T21:59:24.549Z,11.30
2018-06-09T22:01:51.898Z,12.07
2018-06-09T22:04:20.234Z,12.07
2018-06-09T22:06:47.707Z,11.47
2018-06-09T22:09:15.075Z,12.23
2018-06-09T22:11:42.449Z,11.57
2018-06-09T22:14:10.055Z,12.43
2018-06-09T22:16:37.402Z,10.97
2018-06-09T22:19:04.735Z,11.43
2018-06-09T22:21:32.088Z,11.57
2018-06-09T22:23:59.427Z,11.30
2018-06-09T22:26:27.618Z,12.30
2018-06-09T22:28:55.290Z,11.63
2018-06-09T22:31:22.661Z,11.13
2018-06-09T22:33:50.019Z,11.50
2018-06-09T22:36:17.385Z,11.50
2018-06-09T22:38:44.726Z,13.90
2018-06-09T22:41:12.224Z,11.13
2018-06-09T22:43:39.578Z,12.67
2018-06-09T22:46:06.923Z,12.87
2018-06-09T22:48:34.408Z,12.63
2018-06-09T22:51:01.738Z,14.03
2018-06-09T22:53:29.086Z,14.83
2018-06-09T22:55:56.379Z,13.10
2018-06-09T22:58:23.674Z,14.70
2018-06-09T23:00:51.019Z,13.20
2018-06-09T23:03:18.334Z,13.77
2018-06-09T23:05:45.944Z,13.43
2018-06-09T23:08:13.349Z,13.40
2018-06-09T23:10:40.731Z,13.27
2018-06-09T23:13:08.034Z,13.63
2018-06-09T23:15:35.375Z,14.33
2018-06-09T23:18:02.724Z,13.27
2018-06-09T23:20:30.055Z,13.80
2018-06-09T23:22:57.361Z,14.90
2018-06-09T23:25:24.675Z,15.37
2018-06-09T23:27:51.971Z,15.30
2018-06-09T23:30:19.313Z,16.60
2018-06-09T23:32:46.629Z,16.30
2018-06-09T23:35:13.966Z,17.13
2018-06-09T23:37:41.274Z,16.40
2018-06-09T23:40:08.598Z,15.70
2018-06-09T23:42:35.894Z,17.60
2018-06-09T23:45:03.213Z,17.13
2018-06-09T23:47:30.547Z,15.87
2018-06-09T23:49:57.840Z,15.27
2018-06-09T23:52:25.198Z,14.83
2018-06-09T23:54:52.487Z,14.23
2018-06-09T23:57:19.806Z,15.57
2018-06-09T23:59:47.135Z,15.93
